sensor_id;sensor_type;location;lat;lon;timestamp;P1;durP1;ratioP1;P2;durP2;ratioP2
9722;SDS011;4900;49.306;8.500;2024-01-15T00:00:46;25.53;;;9.40;;
9722;SDS011;4900;49.306;8.500;2024-01-15T00:03:11;20.67;;;8.77;;
9722;SDS011;4900;49.306;8.500;2024-01-15T00:05:37;20.87;;;8.33;;
9722;SDS011;4900;49.306;8.500;2024-01-15T00:08:03;26.07;;;10.03;;
9722;SDS011;4900;49.306;8.500;2024-01-15T00:10:29;17.73;;;8.43;;
9722;SDS011;4900;49.306;8.500;2024-01-15T00:12:55;23.80;;;10.67;;
9722;SDS011;4900;49.306;8.500;2024-01-15T00:15:20;25.50;;;10.83;;
9722;SDS011;4900;49.306;8.500;2024-01-15T00:17:46;23.30;;;10.70;;
9722;SDS011;4900;49.306;8.500;2024-01-15T00:20:14;26.20;;;9.90;;
9722;SDS011;4900;49.306;8.500;2024-01-15T00:22:41;25.43;;;9.17;;
9722;SDS011;4900;49.306;8.500;2024-01-15T00:25:09;25.07;;;9.77;;
9722;SDS011;4900;49.306;8.500;2024-01-15T00:27:35;28.03;;;11.70;;
9722;SDS011;4900;49.306;8.500;2024-01-15T00:30:01;21.50;;;9.60;;
9722;SDS011;4900;49.306;8.500;2024-01-15T00:32:26;21.07;;;9.93;;
9722;SDS011;4900;49.306;8.500;2024-01-15T00:34:52;29.40;;;12.97;;
9722;SDS011;4900;49.306;8.500;2024-01-15T00:37:17;30.67;;;12.70;;
9722;SDS011;4900;49.306;8.500;2024-01-15T00:39:43;22.80;;;10.17;;
9722;SDS011;4900;49.306;8.500;2024-01-15T00:42:08;19.80;;;8.83;;
9722;SDS011;4900;49.306;8.500;2024-01-15T00:44:34;23.17;;;9.80;;
9722;SDS011;4900;49.306;8.500;2024-01-15T00:46:59;24.03;;;10.23;;
9722;SDS011;4900;49.306;8.500;2024-01-15T00:49:27;21.93;;;9.47;;
9722;SDS011;4900;49.306;8.500;2024-01-15T00:51:52;25.50;;;10.87;;
9722;SDS011;4900;49.306;8.500;2024-01-15T00:54:18;24.57;;;10.27;;
9722;SDS011;4900;49.306;8.500;2024-01-15T00:56:43;22.10;;;10.67;;
9722;SDS011;4900;49.306;8.500;2024-01-15T00:59:09;30.07;;;12.50;;
9722;SDS011;4900;49.306;8.500;2024-01-15T01:01:35;23.07;;;10.20;;
9722;SDS011;4900;49.306;8.500;2024-01-15T01:04:03;25.37;;;11.30;;
9722;SDS011;4900;49.306;8.500;2024-01-15T01:06:29;28.30;;;11.20;;
9722;SDS011;4900;49.306;8.500;2024-01-15T01:08:57;24.80;;;10.63;;
9722;SDS011;4900;49.306;8.500;2024-01-15T01:11:23;28.47;;;11.37;;
9722;SDS011;4900;49.306;8.500;2024-01-15T01:13:48;24.63;;;10.27;;
9722;SDS011;4900;49.306;8.500;2024-01-15T01:16:14;21.50;;;9.00;;
9722;SDS011;4900;49.306;8.500;2024-01-15T01:18:39;22.97;;;10.07;;
9722;SDS011;4900;49.306;8.500;2024-01-15T01:21:05;26.23;;;10.23;;
9722;SDS011;4900;49.306;8.500;2024-01-15T01:23:30;24.73;;;9.97;;
9722;SDS011;4900;49.306;8.500;2024-01-15T01:25:57;27.33;;;11.40;;
9722;SDS011;4900;49.306;8.500;2024-01-15T01:28:23;23.03;;;10.00;;
9722;SDS011;4900;49.306;8.500;2024-01-15T01:30:48;21.57;;;10.00;;
9722;SDS011;4900;49.306;8.500;2024-01-15T01:33:13;23.23;;;10.60;;
9722;SDS011;4900;49.306;8.500;2024-01-15T01:35:39;20.70;;;9.43;;
9722;SDS011;4900;49.306;8.500;2024-01-15T01:38:04;21.73;;;9.37;;
9722;SDS011;4900;49.306;8.500;2024-01-15T01:40:30;21.53;;;9.67;;
9722;SDS011;4900;49.306;8.500;2024-01-15T01:42:56;20.50;;;9.30;;
9722;SDS011;4900;49.306;8.500;2024-01-15T01:45:21;18.43;;;9.20;;
9722;SDS011;4900;49.306;8.500;2024-01-15T01:47:47;22.40;;;9.73;;
9722;SDS011;4900;49.306;8.500;2024-01-15T01:50:12;22.17;;;9.90;;
9722;SDS011;4900;49.306;8.500;2024-01-15T01:52:39;22.33;;;9.40;;
9722;SDS011;4900;49.306;8.500;2024-01-15T01:55:05;19.70;;;8.97;;
9722;SDS011;4900;49.306;8.500;2024-01-15T01:57:32;21.93;;;10.53;;
9722;SDS011;4900;49.306;8.500;2024-01-15T02:00:00;18.43;;;8.50;;
9722;SDS011;4900;49.306;8.500;2024-01-15T02:02:28;17.67;;;9.23;;
9722;SDS011;4900;49.306;8.500;2024-01-15T02:04:54;20.07;;;8.93;;
9722;SDS011;4900;49.306;8.500;2024-01-15T02:07:20;18.60;;;8.57;;
9722;SDS011;4900;49.306;8.500;2024-01-15T02:09:49;19.97;;;8.90;;
9722;SDS011;4900;49.306;8.500;2024-01-15T02:12:15;20.07;;;9.10;;
9722;SDS011;4900;49.306;8.500;2024-01-15T02:14:41;20.73;;;9.27;;
9722;SDS011;4900;49.306;8.500;2024-01-15T02:17:09;17.70;;;7.87;;
9722;SDS011;4900;49.306;8.500;2024-01-15T02:19:37;19.80;;;8.50;;
9722;SDS011;4900;49.306;8.500;2024-01-15T02:22:04;15.83;;;8.07;;
9722;SDS011;4900;49.306;8.500;2024-01-15T02:24:30;16.70;;;7.43;;
9722;SDS011;4900;49.306;8.500;2024-01-15T02:27:02;22.50;;;9.37;;
9722;SDS011;4900;49.306;8.500;2024-01-15T02:29:28;19.07;;;8.00;;
9722;SDS011;4900;49.306;8.500;2024-01-15T02:31:54;17.80;;;7.73;;
9722;SDS011;4900;49.306;8.500;2024-01-15T02:34:20;19.30;;;8.17;;
9722;SDS011;4900;49.306;8.500;2024-01-15T02:36:45;15.67;;;7.77;;
9722;SDS011;4900;49.306;8.500;2024-01-15T02:39:10;19.77;;;8.47;;
9722;SDS011;4900;49.306;8.500;2024-01-15T02:41:36;13.53;;;7.13;;
9722;SDS011;4900;49.306;8.500;2024-01-15T02:44:02;19.07;;;8.23;;
9722;SDS011;4900;49.306;8.500;2024-01-15T02:46:27;21.23;;;8.43;;
9722;SDS011;4900;49.306;8.500;2024-01-15T02:48:53;19.17;;;8.27;;
9722;SDS011;4900;49.306;8.500;2024-01-15T02:51:18;17.10;;;9.00;;
9722;SDS011;4900;49.306;8.500;2024-01-15T02:53:44;20.77;;;9.67;;
9722;SDS011;4900;49.306;8.500;2024-01-15T02:56:10;18.13;;;8.00;;
9722;SDS011;4900;49.306;8.500;2024-01-15T02:58:35;18.07;;;9.00;;
9722;SDS011;4900;49.306;8.500;2024-01-15T03:01:01;16.90;;;8.00;;
9722;SDS011;4900;49.306;8.500;2024-01-15T03:03:26;18.63;;;7.37;;
9722;SDS011;4900;49.306;8.500;2024-01-15T03:05:52;17.20;;;7.60;;
9722;SDS011;4900;49.306;8.500;2024-01-15T03:08:17;18.00;;;8.67;;
9722;SDS011;4900;49.306;8.500;2024-01-15T03:10:43;16.47;;;7.80;;
9722;SDS011;4900;49.306;8.500;2024-01-15T03:13:09;17.33;;;8.17;;
9722;SDS011;4900;49.306;8.500;2024-01-15T03:15:34;17.97;;;8.47;;
9722;SDS011;4900;49.306;8.500;2024-01-15T03:18:00;19.97;;;8.07;;
9722;SDS011;4900;49.306;8.500;2024-01-15T03:20:25;17.17;;;8.20;;
9722;SDS011;4900;49.306;8.500;2024-01-15T03:22:51;17.60;;;8.10;;
9722;SDS011;4900;49.306;8.500;2024-01-15T03:25:16;21.13;;;9.10;;
9722;SDS011;4900;49.306;8.500;2024-01-15T03:27:42;20.60;;;8.53;;
9722;SDS011;4900;49.306;8.500;2024-01-15T03:30:07;17.60;;;7.63;;
9722;SDS011;4900;49.306;8.500;2024-01-15T03:32:33;20.33;;;8.53;;
9722;SDS011;4900;49.306;8.500;2024-01-15T03:35:02;16.20;;;7.60;;
9722;SDS011;4900;49.306;8.500;2024-01-15T03:37:27;20.17;;;8.73;;
9722;SDS011;4900;49.306;8.500;2024-01-15T03:39:53;18.70;;;8.53;;
9722;SDS011;4900;49.306;8.500;2024-01-15T03:42:18;16.20;;;7.30;;
9722;SDS011;4900;49.306;8.500;2024-01-15T03:44:44;20.73;;;9.20;;
9722;SDS011;4900;49.306;8.500;2024-01-15T03:47:09;17.43;;;8.27;;
9722;SDS011;4900;49.306;8.500;2024-01-15T03:49:35;19.87;;;8.07;;
9722;SDS011;4900;49.306;8.500;2024-01-15T03:52:00;17.43;;;8.30;;
9722;SDS011;4900;49.306;8.500;2024-01-15T03:54:26;15.00;;;7.73;;
9722;SDS011;4900;49.306;8.500;2024-01-15T03:56:52;17.97;;;8.30;;
9722;SDS011;4900;49.306;8.500;2024-01-15T03:59:17;17.97;;;8.27;;
9722;SDS011;4900;49.306;8.500;2024-01-15T04:01:47;17.53;;;8.57;;
9722;SDS011;4900;49.306;8.500;2024-01-15T04:04:16;20.07;;;8.80;;
9722;SDS011;4900;49.306;8.500;2024-01-15T04:06:42;16.80;;;8.03;;
9722;SDS011;4900;49.306;8.500;2024-01-15T04:09:08;17.63;;;8.17;;
9722;SDS011;4900;49.306;8.500;2024-01-15T04:11:34;17.90;;;8.03;;
9722;SDS011;4900;49.306;8.500;2024-01-15T04:13:59;17.47;;;8.43;;
9722;SDS011;4900;49.306;8.500;2024-01-15T04:16:25;16.07;;;7.87;;
9722;SDS011;4900;49.306;8.500;2024-01-15T04:18:51;16.77;;;7.60;;
9722;SDS011;4900;49.306;8.500;2024-01-15T04:21:17;14.63;;;6.67;;
9722;SDS011;4900;49.306;8.500;2024-01-15T04:23:43;19.43;;;8.83;;
9722;SDS011;4900;49.306;8.500;2024-01-15T04:26:09;23.13;;;9.43;;
9722;SDS011;4900;49.306;8.500;2024-01-15T04:28:34;16.97;;;8.07;;
9722;SDS011;4900;49.306;8.500;2024-01-15T04:31:00;18.73;;;8.93;;
9722;SDS011;4900;49.306;8.500;2024-01-15T04:33:25;17.80;;;7.70;;
9722;SDS011;4900;49.306;8.500;2024-01-15T04:35:51;19.17;;;9.67;;
9722;SDS011;4900;49.306;8.500;2024-01-15T04:38:16;17.07;;;8.33;;
9722;SDS011;4900;49.306;8.500;2024-01-15T04:40:42;16.87;;;8.03;;
9722;SDS011;4900;49.306;8.500;2024-01-15T04:43:07;16.20;;;7.57;;
9722;SDS011;4900;49.306;8.500;2024-01-15T04:45:33;17.90;;;8.70;;
9722;SDS011;4900;49.306;8.500;2024-01-15T04:47:59;19.90;;;8.60;;
9722;SDS011;4900;49.306;8.500;2024-01-15T04:50:24;21.63;;;8.43;;
9722;SDS011;4900;49.306;8.500;2024-01-15T04:52:50;18.37;;;8.43;;
9722;SDS011;4900;49.306;8.500;2024-01-15T04:55:15;16.20;;;8.30;;
9722;SDS011;4900;49.306;8.500;2024-01-15T04:57:41;18.03;;;7.83;;
9722;SDS011;4900;49.306;8.500;2024-01-15T05:00:15;19.10;;;8.80;;
9722;SDS011;4900;49.306;8.500;2024-01-15T05:02:41;17.87;;;8.87;;
9722;SDS011;4900;49.306;8.500;2024-01-15T05:05:07;17.60;;;8.73;;
9722;SDS011;4900;49.306;8.500;2024-01-15T05:07:32;20.50;;;8.90;;
9722;SDS011;4900;49.306;8.500;2024-01-15T05:10:01;19.73;;;8.47;;
9722;SDS011;4900;49.306;8.500;2024-01-15T05:12:27;19.07;;;8.77;;
9722;SDS011;4900;49.306;8.500;2024-01-15T05:14:52;23.53;;;9.70;;
9722;SDS011;4900;49.306;8.500;2024-01-15T05:17:18;18.63;;;8.93;;
9722;SDS011;4900;49.306;8.500;2024-01-15T05:19:43;17.87;;;8.53;;
9722;SDS011;4900;49.306;8.500;2024-01-15T05:22:09;17.50;;;7.97;;
9722;SDS011;4900;49.306;8.500;2024-01-15T05:24:34;16.13;;;8.07;;
9722;SDS011;4900;49.306;8.500;2024-01-15T05:27:00;17.77;;;9.00;;
9722;SDS011;4900;49.306;8.500;2024-01-15T05:29:26;18.97;;;9.40;;
9722;SDS011;4900;49.306;8.500;2024-01-15T05:31:53;16.63;;;8.57;;
9722;SDS011;4900;49.306;8.500;2024-01-15T05:34:18;24.23;;;10.43;;
9722;SDS011;4900;49.306;8.500;2024-01-15T05:36:44;18.10;;;9.77;;
9722;SDS011;4900;49.306;8.500;2024-01-15T05:39:11;19.40;;;9.47;;
9722;SDS011;4900;49.306;8.500;2024-01-15T05:41:37;21.33;;;9.97;;
9722;SDS011;4900;49.306;8.500;2024-01-15T05:44:03;18.90;;;9.50;;
9722;SDS011;4900;49.306;8.500;2024-01-15T05:46:28;21.00;;;9.63;;
9722;SDS011;4900;49.306;8.500;2024-01-15T05:48:57;17.27;;;8.97;;
9722;SDS011;4900;49.306;8.500;2024-01-15T05:51:23;18.43;;;8.87;;
9722;SDS011;4900;49.306;8.500;2024-01-15T05:53:49;18.60;;;9.67;;
9722;SDS011;4900;49.306;8.500;2024-01-15T05:56:14;18.77;;;8.80;;
9722;SDS011;4900;49.306;8.500;2024-01-15T05:58:40;17.90;;;8.73;;
9722;SDS011;4900;49.306;8.500;2024-01-15T06:01:05;16.87;;;8.63;;
9722;SDS011;4900;49.306;8.500;2024-01-15T06:03:31;21.37;;;9.43;;
9722;SDS011;4900;49.306;8.500;2024-01-15T06:05:59;18.33;;;8.23;;
9722;SDS011;4900;49.306;8.500;2024-01-15T06:08:25;17.43;;;8.90;;
9722;SDS011;4900;49.306;8.500;2024-01-15T06:10:51;21.67;;;9.77;;
9722;SDS011;4900;49.306;8.500;2024-01-15T06:13:17;19.23;;;9.10;;
9722;SDS011;4900;49.306;8.500;2024-01-15T06:15:42;18.00;;;8.80;;
9722;SDS011;4900;49.306;8.500;2024-01-15T06:18:08;18.47;;;7.47;;
9722;SDS011;4900;49.306;8.500;2024-01-15T06:20:33;17.73;;;8.70;;
9722;SDS011;4900;49.306;8.500;2024-01-15T06:22:59;18.43;;;8.40;;
9722;SDS011;4900;49.306;8.500;2024-01-15T06:25:24;19.93;;;9.30;;
9722;SDS011;4900;49.306;8.500;2024-01-15T06:27:50;18.77;;;9.43;;
9722;SDS011;4900;49.306;8.500;2024-01-15T06:30:15;18.73;;;8.27;;
9722;SDS011;4900;49.306;8.500;2024-01-15T06:32:41;17.30;;;8.40;;
9722;SDS011;4900;49.306;8.500;2024-01-15T06:35:06;18.53;;;9.27;;
9722;SDS011;4900;49.306;8.500;2024-01-15T06:37:32;17.13;;;7.10;;
9722;SDS011;4900;49.306;8.500;2024-01-15T06:39:58;17.50;;;9.13;;
9722;SDS011;4900;49.306;8.500;2024-01-15T06:42:24;13.50;;;7.10;;
9722;SDS011;4900;49.306;8.500;2024-01-15T06:44:50;22.00;;;9.60;;
9722;SDS011;4900;49.306;8.500;2024-01-15T06:47:18;18.67;;;9.53;;
9722;SDS011;4900;49.306;8.500;2024-01-15T06:49:44;17.87;;;8.77;;
9722;SDS011;4900;49.306;8.500;2024-01-15T06:52:09;17.43;;;9.07;;
9722;SDS011;4900;49.306;8.500;2024-01-15T06:54:36;19.53;;;9.53;;
9722;SDS011;4900;49.306;8.500;2024-01-15T06:57:02;17.93;;;9.40;;
9722;SDS011;4900;49.306;8.500;2024-01-15T06:59:27;19.73;;;8.97;;
9722;SDS011;4900;49.306;8.500;2024-01-15T07:01:53;19.60;;;9.83;;
9722;SDS011;4900;49.306;8.500;2024-01-15T07:04:18;16.80;;;9.07;;
9722;SDS011;4900;49.306;8.500;2024-01-15T07:06:44;20.87;;;9.97;;
9722;SDS011;4900;49.306;8.500;2024-01-15T07:09:09;18.57;;;9.07;;
9722;SDS011;4900;49.306;8.500;2024-01-15T07:11:36;19.13;;;9.67;;
9722;SDS011;4900;49.306;8.500;2024-01-15T07:14:01;20.10;;;9.97;;
9722;SDS011;4900;49.306;8.500;2024-01-15T07:16:29;18.50;;;9.20;;
9722;SDS011;4900;49.306;8.500;2024-01-15T07:18:57;18.30;;;9.77;;
9722;SDS011;4900;49.306;8.500;2024-01-15T07:21:22;20.10;;;9.93;;
9722;SDS011;4900;49.306;8.500;2024-01-15T07:23:48;21.20;;;9.80;;
9722;SDS011;4900;49.306;8.500;2024-01-15T07:26:13;20.37;;;10.80;;
9722;SDS011;4900;49.306;8.500;2024-01-15T07:28:40;20.17;;;8.83;;
9722;SDS011;4900;49.306;8.500;2024-01-15T07:31:05;21.40;;;9.97;;
9722;SDS011;4900;49.306;8.500;2024-01-15T07:33:31;19.13;;;7.73;;
9722;SDS011;4900;49.306;8.500;2024-01-15T07:35:56;22.73;;;10.40;;
9722;SDS011;4900;49.306;8.500;2024-01-15T07:38:22;21.10;;;10.70;;
9722;SDS011;4900;49.306;8.500;2024-01-15T07:40:47;20.80;;;9.70;;
9722;SDS011;4900;49.306;8.500;2024-01-15T07:43:14;17.07;;;8.43;;
9722;SDS011;4900;49.306;8.500;2024-01-15T07:45:40;21.03;;;11.00;;
9722;SDS011;4900;49.306;8.500;2024-01-15T07:48:06;21.77;;;10.63;;
9722;SDS011;4900;49.306;8.500;2024-01-15T07:50:32;21.87;;;10.93;;
9722;SDS011;4900;49.306;8.500;2024-01-15T07:52:58;20.27;;;10.63;;
9722;SDS011;4900;49.306;8.500;2024-01-15T07:55:26;20.03;;;9.57;;
9722;SDS011;4900;49.306;8.500;2024-01-15T07:57:51;18.20;;;9.17;;
9722;SDS011;4900;49.306;8.500;2024-01-15T08:00:18;19.63;;;10.00;;
9722;SDS011;4900;49.306;8.500;2024-01-15T08:02:45;19.80;;;9.83;;
9722;SDS011;4900;49.306;8.500;2024-01-15T08:05:11;17.63;;;9.87;;
9722;SDS011;4900;49.306;8.500;2024-01-15T08:07:36;19.97;;;10.40;;
9722;SDS011;4900;49.306;8.500;2024-01-15T08:10:02;19.40;;;10.00;;
9722;SDS011;4900;49.306;8.500;2024-01-15T08:12:28;19.40;;;9.67;;
9722;SDS011;4900;49.306;8.500;2024-01-15T08:14:54;18.77;;;9.67;;
9722;SDS011;4900;49.306;8.500;2024-01-15T08:17:19;21.53;;;10.73;;
9722;SDS011;4900;49.306;8.500;2024-01-15T08:19:45;23.47;;;10.20;;
9722;SDS011;4900;49.306;8.500;2024-01-15T08:22:12;23.03;;;12.17;;
9722;SDS011;4900;49.306;8.500;2024-01-15T08:24:38;19.97;;;9.87;;
9722;SDS011;4900;49.306;8.500;2024-01-15T08:27:04;15.13;;;7.97;;
9722;SDS011;4900;49.306;8.500;2024-01-15T08:29:31;19.23;;;9.43;;
9722;SDS011;4900;49.306;8.500;2024-01-15T08:31:58;21.90;;;11.07;;
9722;SDS011;4900;49.306;8.500;2024-01-15T08:34:24;18.27;;;9.00;;
9722;SDS011;4900;49.306;8.500;2024-01-15T08:36:49;18.60;;;10.50;;
9722;SDS011;4900;49.306;8.500;2024-01-15T08:39:15;14.47;;;8.10;;
9722;SDS011;4900;49.306;8.500;2024-01-15T08:41:41;19.67;;;9.73;;
9722;SDS011;4900;49.306;8.500;2024-01-15T08:44:06;16.77;;;8.83;;
9722;SDS011;4900;49.306;8.500;2024-01-15T08:46:32;17.27;;;9.83;;
9722;SDS011;4900;49.306;8.500;2024-01-15T08:48:58;17.60;;;9.23;;
9722;SDS011;4900;49.306;8.500;2024-01-15T08:51:24;18.67;;;9.50;;
9722;SDS011;4900;49.306;8.500;2024-01-15T08:53:49;18.43;;;9.97;;
9722;SDS011;4900;49.306;8.500;2024-01-15T08:56:16;16.90;;;9.17;;
9722;SDS011;4900;49.306;8.500;2024-01-15T08:58:41;17.53;;;8.77;;
9722;SDS011;4900;49.306;8.500;2024-01-15T09:01:07;17.07;;;9.47;;
9722;SDS011;4900;49.306;8.500;2024-01-15T09:03:32;15.93;;;9.37;;
9722;SDS011;4900;49.306;8.500;2024-01-15T09:06:02;20.07;;;9.93;;
9722;SDS011;4900;49.306;8.500;2024-01-15T09:08:28;15.57;;;8.83;;
9722;SDS011;4900;49.306;8.500;2024-01-15T09:10:54;15.60;;;8.40;;
9722;SDS011;4900;49.306;8.500;2024-01-15T09:13:20;18.13;;;8.53;;
9722;SDS011;4900;49.306;8.500;2024-01-15T09:15:45;17.53;;;9.67;;
9722;SDS011;4900;49.306;8.500;2024-01-15T09:18:11;18.83;;;9.87;;
9722;SDS011;4900;49.306;8.500;2024-01-15T09:20:37;19.40;;;10.77;;
9722;SDS011;4900;49.306;8.500;2024-01-15T09:23:05;17.67;;;9.70;;
9722;SDS011;4900;49.306;8.500;2024-01-15T09:25:31;17.37;;;9.73;;
9722;SDS011;4900;49.306;8.500;2024-01-15T09:27:57;17.97;;;10.40;;
9722;SDS011;4900;49.306;8.500;2024-01-15T09:30:23;17.93;;;10.30;;
9722;SDS011;4900;49.306;8.500;2024-01-15T09:32:48;19.03;;;10.80;;
9722;SDS011;4900;49.306;8.500;2024-01-15T09:35:14;18.33;;;9.73;;
9722;SDS011;4900;49.306;8.500;2024-01-15T09:37:39;18.70;;;10.43;;
9722;SDS011;4900;49.306;8.500;2024-01-15T09:40:11;18.53;;;10.97;;
9722;SDS011;4900;49.306;8.500;2024-01-15T09:42:40;18.07;;;9.50;;
9722;SDS011;4900;49.306;8.500;2024-01-15T09:45:07;20.93;;;10.60;;
9722;SDS011;4900;49.306;8.500;2024-01-15T09:47:34;20.53;;;12.23;;
9722;SDS011;4900;49.306;8.500;2024-01-15T09:50:00;20.03;;;9.90;;
9722;SDS011;4900;49.306;8.500;2024-01-15T09:52:30;17.73;;;10.23;;
9722;SDS011;4900;49.306;8.500;2024-01-15T09:54:56;20.63;;;11.43;;
9722;SDS011;4900;49.306;8.500;2024-01-15T09:57:24;21.37;;;11.03;;
9722;SDS011;4900;49.306;8.500;2024-01-15T09:59:50;19.57;;;10.27;;
9722;SDS011;4900;49.306;8.500;2024-01-15T10:02:20;18.57;;;9.47;;
9722;SDS011;4900;49.306;8.500;2024-01-15T10:04:46;19.70;;;11.27;;
9722;SDS011;4900;49.306;8.500;2024-01-15T10:07:15;20.20;;;9.87;;
9722;SDS011;4900;49.306;8.500;2024-01-15T10:09:44;18.07;;;9.70;;
9722;SDS011;4900;49.306;8.500;2024-01-15T10:12:11;17.00;;;9.10;;
9722;SDS011;4900;49.306;8.500;2024-01-15T10:14:37;19.10;;;10.10;;
9722;SDS011;4900;49.306;8.500;2024-01-15T10:17:11;16.60;;;9.83;;
9722;SDS011;4900;49.306;8.500;2024-01-15T10:19:38;18.00;;;10.23;;
9722;SDS011;4900;49.306;8.500;2024-01-15T10:22:08;19.53;;;10.40;;
9722;SDS011;4900;49.306;8.500;2024-01-15T10:24:37;19.43;;;11.10;;
9722;SDS011;4900;49.306;8.500;2024-01-15T10:27:07;21.80;;;12.20;;
9722;SDS011;4900;49.306;8.500;2024-01-15T10:29:38;20.53;;;11.70;;
9722;SDS011;4900;49.306;8.500;2024-01-15T10:32:07;22.07;;;11.63;;
9722;SDS011;4900;49.306;8.500;2024-01-15T10:34:37;17.13;;;10.43;;
9722;SDS011;4900;49.306;8.500;2024-01-15T10:37:11;18.47;;;11.10;;
9722;SDS011;4900;49.306;8.500;2024-01-15T10:39:46;23.07;;;12.30;;
9722;SDS011;4900;49.306;8.500;2024-01-15T10:42:18;25.90;;;13.63;;
9722;SDS011;4900;49.306;8.500;2024-01-15T10:44:49;23.23;;;11.97;;
9722;SDS011;4900;49.306;8.500;2024-01-15T10:47:17;23.60;;;13.50;;
9722;SDS011;4900;49.306;8.500;2024-01-15T10:50:14;22.60;;;12.90;;
9722;SDS011;4900;49.306;8.500;2024-01-15T10:54:04;19.13;;;11.13;;
9722;SDS011;4900;49.306;8.500;2024-01-15T10:56:44;24.80;;;13.00;;
9722;SDS011;4900;49.306;8.500;2024-01-15T10:59:31;22.10;;;11.47;;
9722;SDS011;4900;49.306;8.500;2024-01-15T11:09:12;20.07;;;10.77;;
9722;SDS011;4900;49.306;8.500;2024-01-15T11:11:42;19.73;;;11.03;;
9722;SDS011;4900;49.306;8.500;2024-01-15T11:17:00;19.97;;;10.70;;
9722;SDS011;4900;49.306;8.500;2024-01-15T11:19:35;17.60;;;11.30;;
9722;SDS011;4900;49.306;8.500;2024-01-15T11:22:04;20.20;;;11.73;;
9722;SDS011;4900;49.306;8.500;2024-01-15T11:38:50;17.23;;;10.37;;
9722;SDS011;4900;49.306;8.500;2024-01-15T11:41:15;24.57;;;13.00;;
9722;SDS011;4900;49.306;8.500;2024-01-15T11:43:41;18.50;;;10.80;;
9722;SDS011;4900;49.306;8.500;2024-01-15T11:46:10;22.23;;;12.50;;
9722;SDS011;4900;49.306;8.500;2024-01-15T11:48:44;21.33;;;12.97;;
9722;SDS011;4900;49.306;8.500;2024-01-15T11:51:12;21.00;;;11.17;;
9722;SDS011;4900;49.306;8.500;2024-01-15T11:53:48;20.87;;;11.13;;
9722;SDS011;4900;49.306;8.500;2024-01-15T11:56:17;16.23;;;8.87;;
9722;SDS011;4900;49.306;8.500;2024-01-15T11:58:46;18.20;;;9.93;;
9722;SDS011;4900;49.306;8.500;2024-01-15T12:01:12;18.73;;;11.47;;
9722;SDS011;4900;49.306;8.500;2024-01-15T12:03:37;15.93;;;9.83;;
9722;SDS011;4900;49.306;8.500;2024-01-15T12:06:06;19.57;;;9.60;;
9722;SDS011;4900;49.306;8.500;2024-01-15T12:08:33;15.90;;;9.00;;
9722;SDS011;4900;49.306;8.500;2024-01-15T12:10:59;17.77;;;9.40;;
9722;SDS011;4900;49.306;8.500;2024-01-15T12:13:25;17.37;;;10.00;;
9722;SDS011;4900;49.306;8.500;2024-01-15T12:15:52;15.73;;;9.53;;
9722;SDS011;4900;49.306;8.500;2024-01-15T12:18:20;21.47;;;12.70;;
9722;SDS011;4900;49.306;8.500;2024-01-15T12:20:46;17.90;;;10.00;;
9722;SDS011;4900;49.306;8.500;2024-01-15T12:23:14;16.00;;;9.87;;
9722;SDS011;4900;49.306;8.500;2024-01-15T12:25:40;18.37;;;10.07;;
9722;SDS011;4900;49.306;8.500;2024-01-15T12:28:06;17.53;;;10.83;;
9722;SDS011;4900;49.306;8.500;2024-01-15T12:30:33;15.60;;;9.30;;
9722;SDS011;4900;49.306;8.500;2024-01-15T12:33:02;16.60;;;10.20;;
9722;SDS011;4900;49.306;8.500;2024-01-15T12:35:30;19.93;;;11.67;;
9722;SDS011;4900;49.306;8.500;2024-01-15T12:37:56;17.67;;;10.70;;
9722;SDS011;4900;49.306;8.500;2024-01-15T12:40:22;19.10;;;10.60;;
9722;SDS011;4900;49.306;8.500;2024-01-15T12:42:48;17.63;;;9.90;;
9722;SDS011;4900;49.306;8.500;2024-01-15T12:45:13;16.77;;;9.37;;
9722;SDS011;4900;49.306;8.500;2024-01-15T12:47:39;12.77;;;8.43;;
9722;SDS011;4900;49.306;8.500;2024-01-15T12:50:09;15.70;;;9.30;;
9722;SDS011;4900;49.306;8.500;2024-01-15T12:52:36;15.13;;;9.80;;
9722;SDS011;4900;49.306;8.500;2024-01-15T12:55:04;14.77;;;9.17;;
9722;SDS011;4900;49.306;8.500;2024-01-15T12:57:30;14.40;;;8.83;;
9722;SDS011;4900;49.306;8.500;2024-01-15T12:59:56;14.97;;;8.70;;
9722;SDS011;4900;49.306;8.500;2024-01-15T13:02:21;13.83;;;8.90;;
9722;SDS011;4900;49.306;8.500;2024-01-15T13:04:47;15.90;;;9.17;;
9722;SDS011;4900;49.306;8.500;2024-01-15T13:07:13;15.53;;;8.73;;
9722;SDS011;4900;49.306;8.500;2024-01-15T13:09:38;16.67;;;8.87;;
9722;SDS011;4900;49.306;8.500;2024-01-15T13:12:04;16.60;;;8.87;;
9722;SDS011;4900;49.306;8.500;2024-01-15T13:14:30;14.37;;;8.93;;
9722;SDS011;4900;49.306;8.500;2024-01-15T13:16:56;17.37;;;9.33;;
9722;SDS011;4900;49.306;8.500;2024-01-15T13:19:23;15.60;;;9.57;;
9722;SDS011;4900;49.306;8.500;2024-01-15T13:21:49;21.27;;;12.63;;
9722;SDS011;4900;49.306;8.500;2024-01-15T13:24:16;16.80;;;10.13;;
9722;SDS011;4900;49.306;8.500;2024-01-15T13:26:42;17.17;;;10.20;;
9722;SDS011;4900;49.306;8.500;2024-01-15T13:29:08;16.07;;;9.63;;
9722;SDS011;4900;49.306;8.500;2024-01-15T13:31:33;18.40;;;9.93;;
9722;SDS011;4900;49.306;8.500;2024-01-15T13:33:59;15.90;;;9.60;;
9722;SDS011;4900;49.306;8.500;2024-01-15T13:36:25;17.60;;;10.20;;
9722;SDS011;4900;49.306;8.500;2024-01-15T13:38:52;14.83;;;8.97;;
9722;SDS011;4900;49.306;8.500;2024-01-15T13:41:19;13.70;;;8.77;;
9722;SDS011;4900;49.306;8.500;2024-01-15T13:43:50;14.23;;;8.20;;
9722;SDS011;4900;49.306;8.500;2024-01-15T13:46:18;11.37;;;7.47;;
9722;SDS011;4900;49.306;8.500;2024-01-15T13:48:48;12.80;;;8.17;;
9722;SDS011;4900;49.306;8.500;2024-01-15T13:51:14;12.00;;;7.73;;
9722;SDS011;4900;49.306;8.500;2024-01-15T13:53:39;12.67;;;6.90;;
9722;SDS011;4900;49.306;8.500;2024-01-15T13:56:05;11.83;;;7.43;;
9722;SDS011;4900;49.306;8.500;2024-01-15T13:58:32;10.43;;;6.73;;
9722;SDS011;4900;49.306;8.500;2024-01-15T14:01:00;11.63;;;7.17;;
9722;SDS011;4900;49.306;8.500;2024-01-15T14:03:28;14.10;;;8.50;;
9722;SDS011;4900;49.306;8.500;2024-01-15T14:05:54;17.83;;;9.43;;
9722;SDS011;4900;49.306;8.500;2024-01-15T14:08:20;22.57;;;10.73;;
9722;SDS011;4900;49.306;8.500;2024-01-15T14:10:45;14.17;;;7.63;;
9722;SDS011;4900;49.306;8.500;2024-01-15T14:13:11;17.00;;;8.60;;
9722;SDS011;4900;49.306;8.500;2024-01-15T14:15:36;16.90;;;8.37;;
9722;SDS011;4900;49.306;8.500;2024-01-15T14:18:02;21.37;;;9.97;;
9722;SDS011;4900;49.306;8.500;2024-01-15T14:20:28;14.03;;;8.37;;
9722;SDS011;4900;49.306;8.500;2024-01-15T14:22:54;13.37;;;8.53;;
9722;SDS011;4900;49.306;8.500;2024-01-15T14:25:20;9.07;;;6.13;;
9722;SDS011;4900;49.306;8.500;2024-01-15T14:27:46;11.23;;;6.70;;
9722;SDS011;4900;49.306;8.500;2024-01-15T14:30:12;9.63;;;6.23;;
9722;SDS011;4900;49.306;8.500;2024-01-15T14:32:38;10.43;;;6.40;;
9722;SDS011;4900;49.306;8.500;2024-01-15T14:35:05;8.97;;;7.00;;
9722;SDS011;4900;49.306;8.500;2024-01-15T14:37:31;10.53;;;7.67;;
9722;SDS011;4900;49.306;8.500;2024-01-15T14:39:56;9.63;;;6.73;;
9722;SDS011;4900;49.306;8.500;2024-01-15T14:42:22;10.60;;;6.87;;
9722;SDS011;4900;49.306;8.500;2024-01-15T14:44:48;9.60;;;6.20;;
9722;SDS011;4900;49.306;8.500;2024-01-15T14:47:13;8.97;;;6.13;;
9722;SDS011;4900;49.306;8.500;2024-01-15T14:49:38;8.87;;;6.27;;
9722;SDS011;4900;49.306;8.500;2024-01-15T14:52:04;8.90;;;5.83;;
9722;SDS011;4900;49.306;8.500;2024-01-15T14:54:30;8.90;;;6.40;;
9722;SDS011;4900;49.306;8.500;2024-01-15T14:56:55;13.57;;;9.20;;
9722;SDS011;4900;49.306;8.500;2024-01-15T14:59:22;9.00;;;6.33;;
9722;SDS011;4900;49.306;8.500;2024-01-15T15:01:47;11.10;;;6.87;;
9722;SDS011;4900;49.306;8.500;2024-01-15T15:04:13;11.10;;;7.97;;
9722;SDS011;4900;49.306;8.500;2024-01-15T15:06:38;9.93;;;7.07;;
9722;SDS011;4900;49.306;8.500;2024-01-15T15:09:04;12.10;;;7.30;;
9722;SDS011;4900;49.306;8.500;2024-01-15T15:11:34;11.00;;;7.33;;
9722;SDS011;4900;49.306;8.500;2024-01-15T15:14:00;11.57;;;7.47;;
9722;SDS011;4900;49.306;8.500;2024-01-15T15:16:26;10.27;;;7.23;;
9722;SDS011;4900;49.306;8.500;2024-01-15T15:18:52;9.17;;;5.97;;